sensor_id;sensor_type;location;lat;lon;timestamp;P1;durP1;ratioP1;P2;durP2;ratioP2
11998;SDS011;40817;51.520;9.954;2024-03-08T00:33:23;30.10;;;16.77;;
11998;SDS011;40817;51.520;9.954;2024-03-08T00:35:54;30.30;;;17.33;;
11998;SDS011;40817;51.520;9.954;2024-03-08T00:38:23;34.67;;;17.73;;
11998;SDS011;40817;51.520;9.954;2024-03-08T00:41:02;32.90;;;17.83;;
11998;SDS011;40817;51.520;9.954;2024-03-08T00:43:34;34.70;;;19.42;;
11998;SDS011;40817;51.520;9.954;2024-03-08T00:46:10;33.88;;;18.55;;
11998;SDS011;40817;51.520;9.954;2024-03-08T00:48:55;34.00;;;17.95;;
11998;SDS011;40817;51.520;9.954;2024-03-08T00:51:51;30.73;;;18.05;;
11998;SDS011;40817;51.520;9.954;2024-03-08T00:54:49;35.28;;;19.52;;
11998;SDS011;40817;51.520;9.954;2024-03-08T00:57:28;35.72;;;20.35;;
11998;SDS011;40817;51.520;9.954;2024-03-08T01:00:10;33.50;;;19.13;;
11998;SDS011;40817;51.520;9.954;2024-03-08T01:02:42;32.50;;;18.52;;
11998;SDS011;40817;51.520;9.954;2024-03-08T01:08:59;35.35;;;19.02;;
11998;SDS011;40817;51.520;9.954;2024-03-08T01:11:59;29.23;;;17.27;;
11998;SDS011;40817;51.520;9.954;2024-03-08T01:14:57;33.15;;;17.98;;
11998;SDS011;40817;51.520;9.954;2024-03-08T01:17:51;30.77;;;17.98;;
11998;SDS011;40817;51.520;9.954;2024-03-08T01:20:49;30.58;;;17.38;;
11998;SDS011;40817;51.520;9.954;2024-03-08T01:23:42;34.08;;;19.60;;
11998;SDS011;40817;51.520;9.954;2024-03-08T01:26:21;31.50;;;18.52;;
11998;SDS011;40817;51.520;9.954;2024-03-08T01:29:20;34.08;;;18.98;;
11998;SDS011;40817;51.520;9.954;2024-03-08T01:32:36;32.28;;;17.88;;
11998;SDS011;40817;51.520;9.954;2024-03-08T01:35:52;32.97;;;18.95;;
11998;SDS011;40817;51.520;9.954;2024-03-08T01:38:43;37.75;;;20.25;;
11998;SDS011;40817;51.520;9.954;2024-03-08T01:41:27;33.75;;;18.85;;
11998;SDS011;40817;51.520;9.954;2024-03-08T01:43:54;34.90;;;19.00;;
11998;SDS011;40817;51.520;9.954;2024-03-08T01:46:22;35.70;;;18.77;;
11998;SDS011;40817;51.520;9.954;2024-03-08T01:48:49;34.13;;;19.15;;
11998;SDS011;40817;51.520;9.954;2024-03-08T01:51:19;35.42;;;18.40;;
11998;SDS011;40817;51.520;9.954;2024-03-08T01:53:47;33.25;;;19.02;;
11998;SDS011;40817;51.520;9.954;2024-03-08T01:56:15;33.70;;;19.15;;
11998;SDS011;40817;51.520;9.954;2024-03-08T01:58:43;33.35;;;18.52;;
11998;SDS011;40817;51.520;9.954;2024-03-08T02:01:12;33.47;;;19.85;;
11998;SDS011;40817;51.520;9.954;2024-03-08T02:03:40;32.15;;;18.65;;
11998;SDS011;40817;51.520;9.954;2024-03-08T02:06:08;30.13;;;18.77;;
11998;SDS011;40817;51.520;9.954;2024-03-08T02:08:40;33.53;;;18.92;;
11998;SDS011;40817;51.520;9.954;2024-03-08T02:11:09;32.65;;;19.52;;
11998;SDS011;40817;51.520;9.954;2024-03-08T02:13:37;35.15;;;19.13;;
11998;SDS011;40817;51.520;9.954;2024-03-08T02:16:04;33.83;;;19.70;;
11998;SDS011;40817;51.520;9.954;2024-03-08T02:18:33;33.75;;;18.67;;
11998;SDS011;40817;51.520;9.954;2024-03-08T02:21:03;36.72;;;18.90;;
11998;SDS011;40817;51.520;9.954;2024-03-08T02:23:33;32.60;;;17.27;;
11998;SDS011;40817;51.520;9.954;2024-03-08T02:26:00;33.33;;;18.63;;
11998;SDS011;40817;51.520;9.954;2024-03-08T02:28:29;33.53;;;18.27;;
11998;SDS011;40817;51.520;9.954;2024-03-08T02:30:57;35.28;;;18.35;;
11998;SDS011;40817;51.520;9.954;2024-03-08T02:33:25;29.38;;;17.02;;
11998;SDS011;40817;51.520;9.954;2024-03-08T02:35:53;32.22;;;17.30;;
11998;SDS011;40817;51.520;9.954;2024-03-08T02:38:23;33.50;;;18.15;;
11998;SDS011;40817;51.520;9.954;2024-03-08T02:40:50;33.17;;;17.55;;
11998;SDS011;40817;51.520;9.954;2024-03-08T02:43:20;30.95;;;18.35;;
11998;SDS011;40817;51.520;9.954;2024-03-08T02:45:49;37.08;;;17.83;;
11998;SDS011;40817;51.520;9.954;2024-03-08T02:48:18;33.67;;;18.92;;
11998;SDS011;40817;51.520;9.954;2024-03-08T02:50:46;33.78;;;18.75;;
11998;SDS011;40817;51.520;9.954;2024-03-08T02:53:13;32.95;;;18.90;;
11998;SDS011;40817;51.520;9.954;2024-03-08T02:55:42;32.95;;;17.80;;
11998;SDS011;40817;51.520;9.954;2024-03-08T02:58:09;38.05;;;19.05;;
11998;SDS011;40817;51.520;9.954;2024-03-08T03:00:39;36.95;;;19.23;;
11998;SDS011;40817;51.520;9.954;2024-03-08T03:03:09;35.40;;;19.13;;
11998;SDS011;40817;51.520;9.954;2024-03-08T03:05:36;35.15;;;19.85;;
11998;SDS011;40817;51.520;9.954;2024-03-08T03:08:06;35.95;;;19.17;;
11998;SDS011;40817;51.520;9.954;2024-03-08T03:10:34;33.58;;;19.00;;
11998;SDS011;40817;51.520;9.954;2024-03-08T03:13:03;33.08;;;17.80;;
11998;SDS011;40817;51.520;9.954;2024-03-08T03:15:31;32.53;;;19.27;;
11998;SDS011;40817;51.520;9.954;2024-03-08T03:17:59;33.60;;;18.70;;
11998;SDS011;40817;51.520;9.954;2024-03-08T03:20:27;34.78;;;18.70;;
11998;SDS011;40817;51.520;9.954;2024-03-08T03:22:57;33.88;;;18.95;;
11998;SDS011;40817;51.520;9.954;2024-03-08T03:25:26;34.75;;;20.27;;
11998;SDS011;40817;51.520;9.954;2024-03-08T03:28:00;36.08;;;19.70;;
11998;SDS011;40817;51.520;9.954;2024-03-08T03:30:29;31.90;;;18.85;;
11998;SDS011;40817;51.520;9.954;2024-03-08T03:32:58;38.08;;;19.77;;
11998;SDS011;40817;51.520;9.954;2024-03-08T03:35:27;41.35;;;20.45;;
11998;SDS011;40817;51.520;9.954;2024-03-08T03:37:55;36.55;;;20.80;;
11998;SDS011;40817;51.520;9.954;2024-03-08T03:40:31;38.83;;;21.05;;
11998;SDS011;40817;51.520;9.954;2024-03-08T03:42:59;35.45;;;20.50;;
11998;SDS011;40817;51.520;9.954;2024-03-08T03:45:29;34.13;;;18.85;;
11998;SDS011;40817;51.520;9.954;2024-03-08T03:48:19;33.35;;;20.15;;
11998;SDS011;40817;51.520;9.954;2024-03-08T03:50:47;34.95;;;19.13;;
11998;SDS011;40817;51.520;9.954;2024-03-08T03:53:15;32.70;;;18.25;;
11998;SDS011;40817;51.520;9.954;2024-03-08T03:55:42;37.13;;;20.02;;
11998;SDS011;40817;51.520;9.954;2024-03-08T03:58:11;33.83;;;20.00;;
11998;SDS011;40817;51.520;9.954;2024-03-08T04:00:40;33.88;;;19.48;;
11998;SDS011;40817;51.520;9.954;2024-03-08T04:03:08;35.03;;;19.55;;
11998;SDS011;40817;51.520;9.954;2024-03-08T04:05:35;39.03;;;20.38;;
11998;SDS011;40817;51.520;9.954;2024-03-08T04:08:03;34.47;;;19.98;;
11998;SDS011;40817;51.520;9.954;2024-03-08T04:10:31;37.63;;;21.42;;
11998;SDS011;40817;51.520;9.954;2024-03-08T04:12:58;34.08;;;19.63;;
11998;SDS011;40817;51.520;9.954;2024-03-08T04:15:25;36.72;;;20.17;;
11998;SDS011;40817;51.520;9.954;2024-03-08T04:17:54;39.03;;;20.17;;
11998;SDS011;40817;51.520;9.954;2024-03-08T04:20:22;35.08;;;19.55;;
11998;SDS011;40817;51.520;9.954;2024-03-08T04:22:49;38.10;;;20.80;;
11998;SDS011;40817;51.520;9.954;2024-03-08T04:25:17;39.72;;;22.20;;
11998;SDS011;40817;51.520;9.954;2024-03-08T04:27:45;40.42;;;21.55;;
11998;SDS011;40817;51.520;9.954;2024-03-08T04:30:13;36.10;;;21.10;;
11998;SDS011;40817;51.520;9.954;2024-03-08T04:32:41;38.88;;;20.98;;
11998;SDS011;40817;51.520;9.954;2024-03-08T04:35:10;37.58;;;21.02;;
11998;SDS011;40817;51.520;9.954;2024-03-08T04:37:37;40.05;;;19.70;;
11998;SDS011;40817;51.520;9.954;2024-03-08T04:40:06;39.80;;;20.88;;
11998;SDS011;40817;51.520;9.954;2024-03-08T04:42:34;35.92;;;20.10;;
11998;SDS011;40817;51.520;9.954;2024-03-08T04:45:03;38.10;;;20.27;;
11998;SDS011;40817;51.520;9.954;2024-03-08T04:47:33;40.35;;;20.38;;
11998;SDS011;40817;51.520;9.954;2024-03-08T04:50:02;36.15;;;20.70;;
11998;SDS011;40817;51.520;9.954;2024-03-08T04:52:32;35.40;;;19.85;;
11998;SDS011;40817;51.520;9.954;2024-03-08T04:54:59;39.78;;;22.45;;
11998;SDS011;40817;51.520;9.954;2024-03-08T04:57:27;36.35;;;19.80;;
11998;SDS011;40817;51.520;9.954;2024-03-08T04:59:55;36.25;;;20.52;;
11998;SDS011;40817;51.520;9.954;2024-03-08T05:02:24;36.28;;;20.02;;
11998;SDS011;40817;51.520;9.954;2024-03-08T05:04:51;37.10;;;19.38;;
11998;SDS011;40817;51.520;9.954;2024-03-08T05:07:19;39.90;;;20.67;;
11998;SDS011;40817;51.520;9.954;2024-03-08T05:09:47;41.97;;;21.33;;
11998;SDS011;40817;51.520;9.954;2024-03-08T05:12:16;43.40;;;21.60;;
11998;SDS011;40817;51.520;9.954;2024-03-08T05:14:44;35.97;;;20.25;;
11998;SDS011;40817;51.520;9.954;2024-03-08T05:17:14;42.03;;;21.88;;
11998;SDS011;40817;51.520;9.954;2024-03-08T05:19:42;38.88;;;21.33;;
11998;SDS011;40817;51.520;9.954;2024-03-08T05:22:09;36.47;;;20.13;;
11998;SDS011;40817;51.520;9.954;2024-03-08T05:24:37;39.97;;;21.50;;
11998;SDS011;40817;51.520;9.954;2024-03-08T05:27:05;37.17;;;21.05;;
11998;SDS011;40817;51.520;9.954;2024-03-08T05:29:32;39.67;;;22.08;;
11998;SDS011;40817;51.520;9.954;2024-03-08T05:32:00;41.20;;;22.02;;
11998;SDS011;40817;51.520;9.954;2024-03-08T05:34:29;38.75;;;20.17;;
11998;SDS011;40817;51.520;9.954;2024-03-08T05:36:56;40.92;;;21.50;;
11998;SDS011;40817;51.520;9.954;2024-03-08T05:39:25;39.05;;;21.27;;
11998;SDS011;40817;51.520;9.954;2024-03-08T05:41:52;41.95;;;21.30;;
11998;SDS011;40817;51.520;9.954;2024-03-08T05:44:21;43.28;;;22.33;;
11998;SDS011;40817;51.520;9.954;2024-03-08T05:46:49;44.90;;;22.40;;
11998;SDS011;40817;51.520;9.954;2024-03-08T05:49:16;40.75;;;21.45;;
11998;SDS011;40817;51.520;9.954;2024-03-08T05:51:43;37.10;;;21.10;;
11998;SDS011;40817;51.520;9.954;2024-03-08T05:54:12;41.40;;;23.10;;
11998;SDS011;40817;51.520;9.954;2024-03-08T05:56:40;45.53;;;24.25;;
11998;SDS011;40817;51.520;9.954;2024-03-08T05:59:08;39.40;;;21.88;;
11998;SDS011;40817;51.520;9.954;2024-03-08T06:01:37;40.97;;;21.73;;
11998;SDS011;40817;51.520;9.954;2024-03-08T06:04:06;38.47;;;20.95;;
11998;SDS011;40817;51.520;9.954;2024-03-08T06:06:33;40.92;;;21.92;;
11998;SDS011;40817;51.520;9.954;2024-03-08T06:09:02;38.97;;;21.67;;
11998;SDS011;40817;51.520;9.954;2024-03-08T06:11:34;38.92;;;21.73;;
11998;SDS011;40817;51.520;9.954;2024-03-08T06:14:02;40.60;;;20.75;;
11998;SDS011;40817;51.520;9.954;2024-03-08T06:16:31;42.47;;;22.50;;
11998;SDS011;40817;51.520;9.954;2024-03-08T06:19:00;38.47;;;22.23;;
11998;SDS011;40817;51.520;9.954;2024-03-08T06:21:28;42.92;;;23.15;;
11998;SDS011;40817;51.520;9.954;2024-03-08T06:23:55;44.03;;;22.63;;
11998;SDS011;40817;51.520;9.954;2024-03-08T06:26:23;44.05;;;22.80;;
11998;SDS011;40817;51.520;9.954;2024-03-08T06:28:53;42.83;;;22.60;;
11998;SDS011;40817;51.520;9.954;2024-03-08T06:31:20;45.88;;;24.40;;
11998;SDS011;40817;51.520;9.954;2024-03-08T06:33:48;42.17;;;23.70;;
11998;SDS011;40817;51.520;9.954;2024-03-08T06:36:17;44.10;;;23.40;;
11998;SDS011;40817;51.520;9.954;2024-03-08T06:38:46;45.70;;;22.77;;
11998;SDS011;40817;51.520;9.954;2024-03-08T06:41:14;45.50;;;24.20;;
11998;SDS011;40817;51.520;9.954;2024-03-08T06:43:41;48.03;;;23.80;;
11998;SDS011;40817;51.520;9.954;2024-03-08T06:46:09;44.65;;;24.23;;
11998;SDS011;40817;51.520;9.954;2024-03-08T06:48:37;41.47;;;22.60;;
11998;SDS011;40817;51.520;9.954;2024-03-08T06:51:05;44.67;;;23.83;;
11998;SDS011;40817;51.520;9.954;2024-03-08T06:53:33;49.42;;;25.13;;
11998;SDS011;40817;51.520;9.954;2024-03-08T06:56:01;44.88;;;23.95;;
11998;SDS011;40817;51.520;9.954;2024-03-08T06:58:28;43.05;;;23.52;;
11998;SDS011;40817;51.520;9.954;2024-03-08T07:00:56;42.40;;;23.38;;
11998;SDS011;40817;51.520;9.954;2024-03-08T07:03:25;49.20;;;24.13;;
11998;SDS011;40817;51.520;9.954;2024-03-08T07:05:54;45.05;;;24.10;;
11998;SDS011;40817;51.520;9.954;2024-03-08T07:08:23;46.10;;;23.00;;
11998;SDS011;40817;51.520;9.954;2024-03-08T07:10:53;43.63;;;23.90;;
11998;SDS011;40817;51.520;9.954;2024-03-08T07:13:20;49.60;;;25.38;;
11998;SDS011;40817;51.520;9.954;2024-03-08T07:15:48;44.67;;;25.13;;
11998;SDS011;40817;51.520;9.954;2024-03-08T07:18:17;45.95;;;23.00;;
11998;SDS011;40817;51.520;9.954;2024-03-08T07:20:44;48.60;;;24.67;;
11998;SDS011;40817;51.520;9.954;2024-03-08T07:23:12;46.13;;;24.38;;
11998;SDS011;40817;51.520;9.954;2024-03-08T07:26:00;48.78;;;24.35;;
11998;SDS011;40817;51.520;9.954;2024-03-08T07:28:28;41.42;;;23.00;;
11998;SDS011;40817;51.520;9.954;2024-03-08T07:30:56;45.05;;;24.25;;
11998;SDS011;40817;51.520;9.954;2024-03-08T07:33:37;45.25;;;24.58;;
11998;SDS011;40817;51.520;9.954;2024-03-08T07:36:05;44.08;;;23.77;;
11998;SDS011;40817;51.520;9.954;2024-03-08T07:38:33;48.97;;;24.63;;
11998;SDS011;40817;51.520;9.954;2024-03-08T07:41:02;49.75;;;24.70;;
11998;SDS011;40817;51.520;9.954;2024-03-08T07:43:29;43.30;;;22.65;;
11998;SDS011;40817;51.520;9.954;2024-03-08T07:45:57;42.63;;;23.70;;
11998;SDS011;40817;51.520;9.954;2024-03-08T07:48:25;43.60;;;22.55;;
11998;SDS011;40817;51.520;9.954;2024-03-08T07:50:53;45.45;;;23.02;;
11998;SDS011;40817;51.520;9.954;2024-03-08T07:53:20;41.00;;;23.85;;
11998;SDS011;40817;51.520;9.954;2024-03-08T07:55:49;48.90;;;23.73;;
11998;SDS011;40817;51.520;9.954;2024-03-08T07:58:18;48.83;;;26.08;;
11998;SDS011;40817;51.520;9.954;2024-03-08T08:00:45;47.47;;;23.27;;
11998;SDS011;40817;51.520;9.954;2024-03-08T08:03:12;44.97;;;23.27;;
11998;SDS011;40817;51.520;9.954;2024-03-08T08:05:41;44.03;;;23.98;;
11998;SDS011;40817;51.520;9.954;2024-03-08T08:08:08;44.53;;;23.65;;
11998;SDS011;40817;51.520;9.954;2024-03-08T08:10:35;41.13;;;21.48;;
11998;SDS011;40817;51.520;9.954;2024-03-08T08:13:03;43.20;;;24.00;;
11998;SDS011;40817;51.520;9.954;2024-03-08T08:15:32;48.95;;;24.90;;
11998;SDS011;40817;51.520;9.954;2024-03-08T08:17:59;42.05;;;22.77;;
11998;SDS011;40817;51.520;9.954;2024-03-08T08:20:27;47.58;;;25.20;;
11998;SDS011;40817;51.520;9.954;2024-03-08T08:22:55;40.20;;;23.73;;
11998;SDS011;40817;51.520;9.954;2024-03-08T08:25:24;43.10;;;23.02;;
11998;SDS011;40817;51.520;9.954;2024-03-08T08:27:51;47.75;;;24.02;;
11998;SDS011;40817;51.520;9.954;2024-03-08T08:30:18;41.70;;;23.65;;
11998;SDS011;40817;51.520;9.954;2024-03-08T08:32:47;43.28;;;23.42;;
11998;SDS011;40817;51.520;9.954;2024-03-08T08:35:14;40.72;;;22.88;;
11998;SDS011;40817;51.520;9.954;2024-03-08T08:37:44;38.15;;;22.50;;
11998;SDS011;40817;51.520;9.954;2024-03-08T08:40:12;38.13;;;22.00;;
11998;SDS011;40817;51.520;9.954;2024-03-08T08:42:42;40.42;;;22.73;;
11998;SDS011;40817;51.520;9.954;2024-03-08T08:45:11;46.58;;;23.63;;
11998;SDS011;40817;51.520;9.954;2024-03-08T08:47:38;42.63;;;23.30;;
11998;SDS011;40817;51.520;9.954;2024-03-08T08:50:09;43.15;;;22.90;;
11998;SDS011;40817;51.520;9.954;2024-03-08T08:52:37;39.72;;;22.17;;
11998;SDS011;40817;51.520;9.954;2024-03-08T08:55:05;39.63;;;21.58;;
11998;SDS011;40817;51.520;9.954;2024-03-08T08:57:39;42.42;;;23.40;;
11998;SDS011;40817;51.520;9.954;2024-03-08T09:00:07;39.90;;;22.38;;
11998;SDS011;40817;51.520;9.954;2024-03-08T09:02:39;36.67;;;21.42;;
11998;SDS011;40817;51.520;9.954;2024-03-08T09:05:08;38.10;;;21.77;;
11998;SDS011;40817;51.520;9.954;2024-03-08T09:07:36;38.28;;;21.00;;
11998;SDS011;40817;51.520;9.954;2024-03-08T09:10:03;43.58;;;21.88;;
11998;SDS011;40817;51.520;9.954;2024-03-08T09:12:34;38.40;;;21.60;;
11998;SDS011;40817;51.520;9.954;2024-03-08T09:15:02;39.53;;;21.25;;
11998;SDS011;40817;51.520;9.954;2024-03-08T09:17:33;40.05;;;21.27;;
11998;SDS011;40817;51.520;9.954;2024-03-08T09:20:00;38.30;;;21.63;;
11998;SDS011;40817;51.520;9.954;2024-03-08T09:22:30;36.83;;;20.48;;
11998;SDS011;40817;51.520;9.954;2024-03-08T09:24:58;38.80;;;21.83;;
11998;SDS011;40817;51.520;9.954;2024-03-08T09:27:25;40.85;;;22.10;;
11998;SDS011;40817;51.520;9.954;2024-03-08T09:29:52;40.58;;;22.40;;
11998;SDS011;40817;51.520;9.954;2024-03-08T09:32:20;40.70;;;21.75;;
11998;SDS011;40817;51.520;9.954;2024-03-08T09:34:48;40.35;;;20.98;;
11998;SDS011;40817;51.520;9.954;2024-03-08T09:37:15;34.28;;;18.92;;
11998;SDS011;40817;51.520;9.954;2024-03-08T09:39:45;37.03;;;20.88;;
11998;SDS011;40817;51.520;9.954;2024-03-08T09:42:13;34.05;;;19.42;;
11998;SDS011;40817;51.520;9.954;2024-03-08T09:44:45;34.70;;;20.17;;
11998;SDS011;40817;51.520;9.954;2024-03-08T09:47:13;39.50;;;20.70;;
11998;SDS011;40817;51.520;9.954;2024-03-08T09:49:41;37.38;;;20.15;;
11998;SDS011;40817;51.520;9.954;2024-03-08T09:52:09;35.90;;;19.25;;
11998;SDS011;40817;51.520;9.954;2024-03-08T09:54:37;34.95;;;20.17;;
11998;SDS011;40817;51.520;9.954;2024-03-08T09:57:10;36.28;;;20.38;;
11998;SDS011;40817;51.520;9.954;2024-03-08T09:59:37;33.78;;;19.90;;
11998;SDS011;40817;51.520;9.954;2024-03-08T10:02:14;38.95;;;21.33;;
11998;SDS011;40817;51.520;9.954;2024-03-08T10:04:42;33.53;;;20.45;;
11998;SDS011;40817;51.520;9.954;2024-03-08T10:07:12;38.38;;;20.55;;
11998;SDS011;40817;51.520;9.954;2024-03-08T10:09:39;35.22;;;21.33;;
11998;SDS011;40817;51.520;9.954;2024-03-08T10:12:13;39.78;;;21.67;;
11998;SDS011;40817;51.520;9.954;2024-03-08T10:14:45;36.47;;;20.75;;
11998;SDS011;40817;51.520;9.954;2024-03-08T10:17:12;33.10;;;19.88;;
11998;SDS011;40817;51.520;9.954;2024-03-08T10:19:44;35.10;;;20.50;;
11998;SDS011;40817;51.520;9.954;2024-03-08T10:22:18;33.47;;;21.15;;
11998;SDS011;40817;51.520;9.954;2024-03-08T10:24:45;32.20;;;19.35;;
11998;SDS011;40817;51.520;9.954;2024-03-08T10:27:15;33.92;;;20.67;;
11998;SDS011;40817;51.520;9.954;2024-03-08T10:29:46;33.83;;;20.35;;
11998;SDS011;40817;51.520;9.954;2024-03-08T10:32:15;34.67;;;19.23;;
11998;SDS011;40817;51.520;9.954;2024-03-08T10:34:42;33.60;;;19.77;;
11998;SDS011;40817;51.520;9.954;2024-03-08T10:37:12;32.85;;;18.77;;
11998;SDS011;40817;51.520;9.954;2024-03-08T10:39:49;30.67;;;17.50;;
11998;SDS011;40817;51.520;9.954;2024-03-08T10:42:37;31.60;;;18.20;;
11998;SDS011;40817;51.520;9.954;2024-03-08T10:45:15;31.00;;;18.17;;
11998;SDS011;40817;51.520;9.954;2024-03-08T10:47:55;31.48;;;19.48;;
11998;SDS011;40817;51.520;9.954;2024-03-08T10:50:44;31.88;;;18.95;;
11998;SDS011;40817;51.520;9.954;2024-03-08T10:53:15;30.15;;;17.48;;
11998;SDS011;40817;51.520;9.954;2024-03-08T10:55:46;30.52;;;17.67;;
11998;SDS011;40817;51.520;9.954;2024-03-08T10:58:19;29.17;;;18.20;;
11998;SDS011;40817;51.520;9.954;2024-03-08T11:00:48;30.55;;;18.83;;
11998;SDS011;40817;51.520;9.954;2024-03-08T11:06:14;29.27;;;17.70;;
11998;SDS011;40817;51.520;9.954;2024-03-08T11:08:48;32.72;;;18.40;;
11998;SDS011;40817;51.520;9.954;2024-03-08T11:11:28;28.48;;;17.88;;
11998;SDS011;40817;51.520;9.954;2024-03-08T11:14:01;28.85;;;17.30;;
11998;SDS011;40817;51.520;9.954;2024-03-08T11:19:24;26.38;;;16.48;;
11998;SDS011;40817;51.520;9.954;2024-03-08T11:21:57;27.08;;;16.75;;
11998;SDS011;40817;51.520;9.954;2024-03-08T11:24:26;27.65;;;16.67;;
11998;SDS011;40817;51.520;9.954;2024-03-08T11:26:57;28.50;;;17.65;;
11998;SDS011;40817;51.520;9.954;2024-03-08T11:29:33;29.33;;;17.23;;
11998;SDS011;40817;51.520;9.954;2024-03-08T11:32:09;26.33;;;16.85;;
11998;SDS011;40817;51.520;9.954;2024-03-08T11:34:39;26.80;;;17.13;;
11998;SDS011;40817;51.520;9.954;2024-03-08T11:37:12;30.60;;;17.63;;
11998;SDS011;40817;51.520;9.954;2024-03-08T11:39:46;27.50;;;16.33;;
11998;SDS011;40817;51.520;9.954;2024-03-08T11:42:14;30.90;;;18.08;;
11998;SDS011;40817;51.520;9.954;2024-03-08T11:44:44;29.42;;;17.85;;
11998;SDS011;40817;51.520;9.954;2024-03-08T11:47:13;27.50;;;17.60;;
11998;SDS011;40817;51.520;9.954;2024-03-08T11:49:41;28.25;;;17.75;;
11998;SDS011;40817;51.520;9.954;2024-03-08T11:52:11;29.33;;;18.60;;
11998;SDS011;40817;51.520;9.954;2024-03-08T11:54:39;29.48;;;17.00;;
11998;SDS011;40817;51.520;9.954;2024-03-08T11:57:06;29.55;;;17.25;;
11998;SDS011;40817;51.520;9.954;2024-03-08T11:59:35;28.50;;;16.63;;
11998;SDS011;40817;51.520;9.954;2024-03-08T12:02:04;27.33;;;17.30;;
11998;SDS011;40817;51.520;9.954;2024-03-08T12:04:35;31.98;;;17.48;;
11998;SDS011;40817;51.520;9.954;2024-03-08T12:07:03;24.45;;;15.73;;
11998;SDS011;40817;51.520;9.954;2024-03-08T12:09:35;28.65;;;17.10;;
11998;SDS011;40817;51.520;9.954;2024-03-08T12:12:02;26.73;;;16.27;;
11998;SDS011;40817;51.520;9.954;2024-03-08T12:14:32;26.52;;;16.30;;
11998;SDS011;40817;51.520;9.954;2024-03-08T12:17:00;29.20;;;16.95;;
11998;SDS011;40817;51.520;9.954;2024-03-08T12:19:29;25.92;;;16.35;;
11998;SDS011;40817;51.520;9.954;2024-03-08T12:21:56;28.42;;;16.77;;
11998;SDS011;40817;51.520;9.954;2024-03-08T12:24:23;26.52;;;15.70;;
11998;SDS011;40817;51.520;9.954;2024-03-08T12:26:52;25.98;;;16.15;;
11998;SDS011;40817;51.520;9.954;2024-03-08T12:29:22;27.50;;;16.70;;
11998;SDS011;40817;51.520;9.954;2024-03-08T12:31:53;30.33;;;17.77;;
11998;SDS011;40817;51.520;9.954;2024-03-08T12:34:23;25.33;;;16.35;;
11998;SDS011;40817;51.520;9.954;2024-03-08T12:36:53;24.70;;;15.75;;
11998;SDS011;40817;51.520;9.954;2024-03-08T12:39:21;26.38;;;15.98;;
11998;SDS011;40817;51.520;9.954;2024-03-08T12:41:52;27.17;;;16.10;;
11998;SDS011;40817;51.520;9.954;2024-03-08T12:44:19;26.45;;;16.63;;
11998;SDS011;40817;51.520;9.954;2024-03-08T12:46:47;25.80;;;17.08;;
11998;SDS011;40817;51.520;9.954;2024-03-08T12:49:16;27.38;;;16.75;;
11998;SDS011;40817;51.520;9.954;2024-03-08T12:51:44;27.05;;;17.25;;
11998;SDS011;40817;51.520;9.954;2024-03-08T12:54:12;28.67;;;17.52;;
11998;SDS011;40817;51.520;9.954;2024-03-08T12:56:39;27.13;;;17.55;;
11998;SDS011;40817;51.520;9.954;2024-03-08T12:59:07;26.20;;;17.13;;
11998;SDS011;40817;51.520;9.954;2024-03-08T13:01:35;25.35;;;16.25;;
11998;SDS011;40817;51.520;9.954;2024-03-08T13:04:03;25.60;;;16.70;;
11998;SDS011;40817;51.520;9.954;2024-03-08T13:06:31;26.63;;;17.80;;
11998;SDS011;40817;51.520;9.954;2024-03-08T13:08:59;27.40;;;17.08;;
11998;SDS011;40817;51.520;9.954;2024-03-08T13:11:32;28.00;;;17.45;;
11998;SDS011;40817;51.520;9.954;2024-03-08T13:14:02;26.73;;;17.88;;
11998;SDS011;40817;51.520;9.954;2024-03-08T13:16:31;26.75;;;16.95;;
11998;SDS011;40817;51.520;9.954;2024-03-08T13:18:59;27.90;;;16.25;;
11998;SDS011;40817;51.520;9.954;2024-03-08T13:21:27;23.48;;;15.63;;
11998;SDS011;40817;51.520;9.954;2024-03-08T13:23:55;28.52;;;17.65;;
11998;SDS011;40817;51.520;9.954;2024-03-08T13:26:24;28.20;;;17.30;;
11998;SDS011;40817;51.520;9.954;2024-03-08T13:28:59;24.05;;;16.63;;
11998;SDS011;40817;51.520;9.954;2024-03-08T13:31:26;23.33;;;15.52;;
11998;SDS011;40817;51.520;9.954;2024-03-08T13:33:53;24.67;;;15.95;;
11998;SDS011;40817;51.520;9.954;2024-03-08T13:36:23;26.27;;;16.65;;
11998;SDS011;40817;51.520;9.954;2024-03-08T13:38:54;25.58;;;17.25;;
11998;SDS011;40817;51.520;9.954;2024-03-08T13:41:24;28.95;;;16.85;;
11998;SDS011;40817;51.520;9.954;2024-03-08T13:43:51;27.25;;;18.00;;
11998;SDS011;40817;51.520;9.954;2024-03-08T13:46:23;27.02;;;17.67;;
11998;SDS011;40817;51.520;9.954;2024-03-08T13:48:51;28.10;;;18.52;;
11998;SDS011;40817;51.520;9.954;2024-03-08T13:51:19;25.75;;;18.48;;
11998;SDS011;40817;51.520;9.954;2024-03-08T13:53:47;29.05;;;18.70;;
11998;SDS011;40817;51.520;9.954;2024-03-08T13:56:15;26.77;;;18.88;;
11998;SDS011;40817;51.520;9.954;2024-03-08T13:58:42;30.88;;;18.45;;
11998;SDS011;40817;51.520;9.954;2024-03-08T14:01:09;27.35;;;18.35;;
11998;SDS011;40817;51.520;9.954;2024-03-08T14:03:38;26.63;;;18.52;;
11998;SDS011;40817;51.520;9.954;2024-03-08T14:06:06;26.77;;;18.45;;
11998;SDS011;40817;51.520;9.954;2024-03-08T14:08:34;26.77;;;17.88;;
11998;SDS011;40817;51.520;9.954;2024-03-08T14:11:03;27.13;;;17.73;;
11998;SDS011;40817;51.520;9.954;2024-03-08T14:13:37;27.30;;;17.75;;
11998;SDS011;40817;51.520;9.954;2024-03-08T14:16:10;30.15;;;19.05;;
11998;SDS011;40817;51.520;9.954;2024-03-08T14:18:39;27.65;;;18.77;;
11998;SDS011;40817;51.520;9.954;2024-03-08T14:21:07;25.27;;;17.23;;
11998;SDS011;40817;51.520;9.954;2024-03-08T14:23:35;27.73;;;18.17;;
11998;SDS011;40817;51.520;9.954;2024-03-08T14:26:02;26.02;;;18.42;;
11998;SDS011;40817;51.520;9.954;2024-03-08T14:28:32;24.92;;;17.67;;
11998;SDS011;40817;51.520;9.954;2024-03-08T14:30:59;27.30;;;17.33;;
11998;SDS011;40817;51.520;9.954;2024-03-08T14:33:28;24.42;;;17.23;;
11998;SDS011;40817;51.520;9.954;2024-03-08T14:35:57;26.33;;;18.23;;
11998;SDS011;40817;51.520;9.954;2024-03-08T14:38:26;27.95;;;18.65;;
11998;SDS011;40817;51.520;9.954;2024-03-08T14:40:53;24.80;;;17.50;;
11998;SDS011;40817;51.520;9.954;2024-03-08T14:43:21;24.30;;;17.73;;
11998;SDS011;40817;51.520;9.954;2024-03-08T14:45:49;24.15;;;16.90;;
11998;SDS011;40817;51.520;9.954;2024-03-08T14:48:17;27.67;;;17.30;;
11998;SDS011;40817;51.520;9.954;2024-03-08T14:50:45;27.45;;;18.40;;
11998;SDS011;40817;51.520;9.954;2024-03-08T14:53:14;26.80;;;18.05;;
11998;SDS011;40817;51.520;9.954;2024-03-08T14:55:43;24.70;;;17.27;;
11998;SDS011;40817;51.520;9.954;2024-03-08T14:58:12;27.02;;;18.55;;
11998;SDS011;40817;51.520;9.954;2024-03-08T15:00:39;24.48;;;17.77;;
11998;SDS011;40817;51.520;9.954;2024-03-08T15:03:07;28.75;;;18.58;;
11998;SDS011;40817;51.520;9.954;2024-03-08T15:05:38;27.13;;;18.42;;
11998;SDS011;40817;51.520;9.954;2024-03-08T15:08:07;28.23;;;17.80;;
11998;SDS011;40817;51.520;9.954;2024-03-08T15:10:46;24.80;;;17.67;;
11998;SDS011;40817;51.520;9.954;2024-03-08T15:13:18;31.02;;;18.55;;
11998;SDS011;40817;51.520;9.954;2024-03-08T15:15:52;28.52;;;19.77;;
11998;SDS011;40817;51.520;9.954;2024-03-08T15:18:21;27.13;;;18.65;;
11998;SDS011;40817;51.520;9.954;2024-03-08T15:20:59;27.13;;;19.13;;